Time;durP1;ratioP1;P1;durP2;ratioP2;P2;SDS_P1;SDS_P2;PMS_P1;PMS_P2;Temp;Humidity;BMP_temperature;BMP_pressure;BME280_temperature;BME280_humidity;BME280_pressure;Samples;Min_cycle;Max_cycle;Signal;HPM_P1;HPM_P2
2022/07/09 00:01:57;;;;;;;13.70;5.72;;;16.50;99.90;;;;;;5035708;28;20125;-77
2022/07/09 00:04:23;;;;;;;15.90;5.15;;;16.40;99.90;;;;;;5035813;28;20040;-77
2022/07/09 00:06:49;;;;;;;13.82;5.22;;;16.40;99.90;;;;;;5035421;28;20079;-77
2022/07/09 00:09:14;;;;;;;11.40;5.57;;;16.40;99.90;;;;;;5035395;28;20722;-77
2022/07/09 00:11:40;;;;;;;10.30;5.25;;;16.40;99.90;;;;;;5035157;28;20120;-77
2022/07/09 00:14:05;;;;;;;12.65;5.90;;;16.40;99.90;;;;;;5035661;28;20033;-77
2022/07/09 00:16:31;;;;;;;12.93;4.95;;;16.40;99.90;;;;;;5018826;28;20499;-77
2022/07/09 00:18:57;;;;;;;20.23;5.95;;;16.40;99.90;;;;;;5035359;28;20088;-77
2022/07/09 00:21:23;;;;;;;9.75;5.28;;;16.40;99.90;;;;;;5035345;28;20044;-77
2022/07/09 00:23:48;;;;;;;11.30;5.75;;;16.30;99.90;;;;;;5034449;28;20518;-77
2022/07/09 00:26:15;;;;;;;12.18;5.90;;;16.30;99.90;;;;;;5034930;28;20041;-77
2022/07/09 00:28:41;;;;;;;12.35;5.93;;;16.20;99.90;;;;;;5034740;28;20124;-77
2022/07/09 00:31:07;;;;;;;11.35;6.13;;;16.10;99.90;;;;;;5034507;28;20128;-77
2022/07/09 00:33:32;;;;;;;10.88;5.75;;;16.10;99.90;;;;;;5018145;28;20045;-77
2022/07/09 00:35:58;;;;;;;13.23;6.07;;;16.10;99.90;;;;;;5034610;28;20045;-77
2022/07/09 00:38:23;;;;;;;12.35;6.20;;;16.10;99.90;;;;;;5034474;28;20065;-77
2022/07/09 00:40:50;;;;;;;13.80;7.70;;;16.00;99.90;;;;;;5034265;28;20041;-77
2022/07/09 00:43:20;;;;;;;15.40;6.40;;;16.00;99.90;;;;;;5034435;28;20045;-77
2022/07/09 00:45:47;;;;;;;17.77;6.47;;;16.00;99.90;;;;;;5035104;28;20033;-78
2022/07/09 00:48:13;;;;;;;15.98;7.03;;;16.00;99.90;;;;;;5034611;28;20101;-77
2022/07/09 00:50:40;;;;;;;15.40;6.90;;;16.00;99.90;;;;;;5034533;28;20610;-77
2022/07/09 00:53:12;;;;;;;16.27;7.05;;;15.90;99.90;;;;;;5034790;28;20388;-77
2022/07/09 00:55:38;;;;;;;14.48;7.28;;;16.00;99.90;;;;;;5018082;28;20053;-77
2022/07/09 00:58:05;;;;;;;23.25;7.57;;;16.00;99.90;;;;;;5034233;28;20052;-77
2022/07/09 01:00:32;;;;;;;20.35;8.95;;;16.00;99.90;;;;;;5034343;28;20052;-77
2022/07/09 01:02:57;;;;;;;22.20;8.27;;;16.00;99.90;;;;;;5034210;28;20139;-78
2022/07/09 01:05:23;;;;;;;17.40;7.00;;;16.00;99.90;;;;;;5034552;28;20044;-77
2022/07/09 01:07:49;;;;;;;20.20;8.15;;;16.00;99.90;;;;;;5033975;28;20531;-77
2022/07/09 01:10:14;;;;;;;19.75;8.63;;;16.00;99.90;;;;;;5033867;28;20048;-77
2022/07/09 01:12:40;;;;;;;17.17;8.27;;;16.00;99.90;;;;;;5034081;28;20129;-77
2022/07/09 01:15:06;;;;;;;17.80;7.75;;;16.10;99.90;;;;;;5034275;28;20492;-78
2022/07/09 01:17:39;;;;;;;17.65;7.72;;;16.10;99.90;;;;;;5034005;28;20041;-77
2022/07/09 01:20:06;;;;;;;21.05;8.48;;;16.10;99.90;;;;;;5033641;28;20048;-78
2022/07/09 01:22:33;;;;;;;23.48;8.45;;;16.10;99.90;;;;;;5033937;28;20067;-78
2022/07/09 01:25:00;;;;;;;22.15;8.27;;;16.10;99.90;;;;;;5034527;28;20072;-78
2022/07/09 01:27:25;;;;;;;18.80;8.32;;;16.10;99.90;;;;;;5033656;28;20130;-78
2022/07/09 01:29:51;;;;;;;16.00;7.68;;;16.10;99.90;;;;;;5033968;28;20072;-78
2022/07/09 01:32:17;;;;;;;17.52;7.95;;;16.20;99.90;;;;;;5017444;28;20048;-77
2022/07/09 01:34:43;;;;;;;17.30;8.25;;;16.20;99.90;;;;;;5033714;28;20450;-77
2022/07/09 01:37:09;;;;;;;21.02;7.85;;;16.20;99.90;;;;;;5033673;28;20434;-77
2022/07/09 01:39:35;;;;;;;21.05;8.40;;;16.20;99.90;;;;;;5033745;28;20508;-78
2022/07/09 01:42:00;;;;;;;18.17;8.00;;;16.20;99.90;;;;;;5033973;28;20142;-77
2022/07/09 01:44:26;;;;;;;17.52;7.85;;;16.20;99.90;;;;;;5017213;28;20135;-78
2022/07/09 01:46:52;;;;;;;20.88;9.20;;;16.20;99.90;;;;;;5033832;28;20116;-78
2022/07/09 01:49:17;;;;;;;20.05;8.68;;;16.20;99.90;;;;;;5033580;28;20036;-77
2022/07/09 01:51:43;;;;;;;19.00;8.00;;;16.20;99.90;;;;;;5033473;28;20048;-78
2022/07/09 01:54:09;;;;;;;18.63;8.40;;;16.20;99.90;;;;;;5034139;28;20229;-78
2022/07/09 01:56:35;;;;;;;20.50;8.48;;;16.20;99.90;;;;;;5051160;28;20106;-78
2022/07/09 01:59:01;;;;;;;23.83;8.55;;;16.20;99.90;;;;;;5033247;28;20041;-77
2022/07/09 02:01:27;;;;;;;19.67;8.15;;;16.20;99.90;;;;;;5038422;28;20131;-77
2022/07/09 02:03:53;;;;;;;16.90;8.18;;;16.20;99.90;;;;;;5038734;28;20029;-77
2022/07/09 02:06:18;;;;;;;19.95;8.75;;;16.30;99.90;;;;;;5032762;28;20041;-78
2022/07/09 02:08:44;;;;;;;18.73;8.13;;;16.20;99.90;;;;;;5033348;28;20079;-77
2022/07/09 02:11:10;;;;;;;17.23;8.40;;;16.20;99.90;;;;;;5032843;28;20488;-77
2022/07/09 02:13:36;;;;;;;16.15;7.93;;;16.20;99.90;;;;;;5033032;28;20036;-78
2022/07/09 02:16:01;;;;;;;15.45;7.85;;;16.20;99.90;;;;;;5032947;28;20461;-77
2022/07/09 02:18:27;;;;;;;12.88;7.15;;;16.10;99.90;;;;;;5032973;28;20037;-77
2022/07/09 02:20:55;;;;;;;11.95;6.95;;;16.10;99.90;;;;;;5032825;28;20063;-77
2022/07/09 02:23:22;;;;;;;17.95;8.27;;;16.00;99.90;;;;;;5032937;28;20047;-77
2022/07/09 02:25:47;;;;;;;15.05;8.07;;;16.10;99.90;;;;;;5033058;28;20045;-77
2022/07/09 02:28:13;;;;;;;13.32;6.75;;;16.10;99.90;;;;;;5050812;28;20120;-77
2022/07/09 02:30:38;;;;;;;14.63;6.38;;;16.00;99.90;;;;;;5032690;28;20045;-77
2022/07/09 02:33:04;;;;;;;15.52;6.55;;;16.00;99.90;;;;;;5016394;28;20037;-78
2022/07/09 02:35:30;;;;;;;12.25;6.35;;;16.00;99.90;;;;;;5032826;28;20127;-77
2022/07/09 02:37:56;;;;;;;11.02;6.47;;;16.00;99.90;;;;;;5032842;28;20037;-77
2022/07/09 02:40:21;;;;;;;13.27;6.20;;;16.00;99.90;;;;;;5032500;28;20076;-78
2022/07/09 02:42:47;;;;;;;12.63;6.43;;;15.90;99.90;;;;;;5033024;28;20090;-77
2022/07/09 02:45:13;;;;;;;14.38;5.93;;;15.90;99.90;;;;;;5033188;28;20551;-77
2022/07/09 02:47:39;;;;;;;12.05;6.30;;;15.90;99.90;;;;;;5035287;28;20285;-78
2022/07/09 02:50:05;;;;;;;12.80;6.07;;;15.90;99.90;;;;;;5036155;28;20037;-78
2022/07/09 02:52:30;;;;;;;10.77;5.63;;;15.90;99.90;;;;;;5054399;28;20075;-78
2022/07/09 02:54:56;;;;;;;13.40;6.32;;;15.90;99.90;;;;;;5037138;28;20068;-77
2022/07/09 02:57:22;;;;;;;15.10;6.07;;;16.00;99.90;;;;;;5036438;28;20496;-77
2022/07/09 02:59:47;;;;;;;12.07;6.15;;;15.90;99.90;;;;;;5036414;28;20053;-77
2022/07/09 03:02:13;;;;;;;10.13;6.13;;;15.80;99.90;;;;;;5036831;28;20044;-77
2022/07/09 03:04:38;;;;;;;13.10;5.78;;;15.80;99.90;;;;;;5036540;28;20499;-77
2022/07/09 03:07:04;;;;;;;11.40;6.07;;;15.90;99.90;;;;;;5036335;28;20044;-78
2022/07/09 03:09:30;;;;;;;12.98;5.88;;;15.80;99.90;;;;;;5036255;28;20118;-77
2022/07/09 03:11:55;;;;;;;12.32;6.47;;;15.90;99.90;;;;;;5036223;28;20075;-78
2022/07/09 03:14:21;;;;;;;11.52;5.15;;;15.90;99.90;;;;;;5036255;28;20048;-77
2022/07/09 03:16:47;;;;;;;11.13;6.10;;;15.90;99.90;;;;;;5036041;28;20056;-78
2022/07/09 03:19:12;;;;;;;13.23;5.38;;;15.90;99.90;;;;;;5036391;28;20128;-77
2022/07/09 03:21:38;;;;;;;13.00;5.80;;;15.90;99.90;;;;;;5036056;28;20086;-77
2022/07/09 03:24:04;;;;;;;14.32;5.93;;;15.90;99.90;;;;;;5036252;28;20400;-78
2022/07/09 03:26:29;;;;;;;12.30;5.95;;;15.90;99.90;;;;;;5019895;28;20037;-78
2022/07/09 03:28:55;;;;;;;14.13;6.05;;;15.90;99.90;;;;;;5036557;28;20042;-78
2022/07/09 03:31:20;;;;;;;11.80;6.13;;;15.90;99.90;;;;;;5019507;28;20037;-78
2022/07/09 03:33:46;;;;;;;11.98;7.15;;;15.90;99.90;;;;;;5019729;28;20402;-78
2022/07/09 03:36:12;;;;;;;10.05;6.65;;;15.90;99.90;;;;;;5053858;28;20112;-77
2022/07/09 03:38:37;;;;;;;13.25;6.63;;;16.00;99.90;;;;;;5035978;28;20052;-77
2022/07/09 03:41:03;;;;;;;10.02;6.10;;;16.00;99.90;;;;;;5035619;28;20037;-77
2022/07/09 03:43:29;;;;;;;10.73;5.70;;;16.00;99.90;;;;;;5019370;28;20434;-77
2022/07/09 03:45:54;;;;;;;10.73;6.43;;;15.90;99.90;;;;;;5035802;28;20041;-78
2022/07/09 03:48:20;;;;;;;12.95;6.03;;;15.90;99.90;;;;;;5019047;28;20041;-77
2022/07/09 03:50:46;;;;;;;12.85;5.63;;;15.90;99.90;;;;;;5035418;28;20033;-78
2022/07/09 03:53:11;;;;;;;13.10;6.05;;;15.90;99.90;;;;;;5035762;28;20075;-78
2022/07/09 03:55:37;;;;;;;9.18;5.63;;;15.90;99.90;;;;;;5019194;28;20064;-77
2022/07/09 03:58:03;;;;;;;16.52;6.63;;;15.90;99.90;;;;;;5034841;28;20128;-78
2022/07/09 04:00:28;;;;;;;7.97;5.15;;;15.90;99.90;;;;;;5035122;28;20045;-77
2022/07/09 04:02:54;;;;;;;12.18;6.25;;;15.90;99.90;;;;;;5035544;28;20044;-78
2022/07/09 04:05:20;;;;;;;11.45;5.97;;;15.90;99.90;;;;;;5035634;28;20156;-77
2022/07/09 04:07:46;;;;;;;8.45;5.60;;;15.90;99.90;;;;;;5035315;28;20041;-77
2022/07/09 04:10:12;;;;;;;12.13;6.03;;;15.90;99.90;;;;;;5035108;28;20067;-77
2022/07/09 04:12:37;;;;;;;14.93;5.57;;;15.90;99.90;;;;;;5035247;28;20052;-77
2022/07/09 04:15:03;;;;;;;9.50;5.10;;;15.90;99.90;;;;;;5035212;28;20112;-77
2022/07/09 04:17:29;;;;;;;13.27;6.00;;;16.00;99.90;;;;;;5035068;28;20041;-78
2022/07/09 04:19:55;;;;;;;12.55;5.20;;;16.00;99.90;;;;;;5018529;28;20041;-77
2022/07/09 04:22:20;;;;;;;10.98;5.93;;;16.00;99.90;;;;;;5035195;28;20045;-77
2022/07/09 04:24:46;;;;;;;9.25;5.35;;;16.00;99.90;;;;;;5035143;28;20495;-78
2022/07/09 04:27:11;;;;;;;9.57;5.20;;;16.10;99.90;;;;;;5035006;28;20044;-77
2022/07/09 04:29:37;;;;;;;9.15;5.20;;;16.00;99.90;;;;;;5035013;28;20044;-77
2022/07/09 04:32:03;;;;;;;12.85;5.70;;;16.10;99.90;;;;;;5034926;28;20037;-78
2022/07/09 04:34:29;;;;;;;13.05;5.40;;;16.00;99.90;;;;;;5035482;28;20672;-77
2022/07/09 04:36:54;;;;;;;11.13;5.53;;;16.10;99.90;;;;;;5034966;28;20045;-77
2022/07/09 04:39:20;;;;;;;11.80;5.13;;;16.10;99.90;;;;;;5034972;28;20411;-77
2022/07/09 04:41:46;;;;;;;11.68;5.45;;;16.10;99.90;;;;;;5034482;28;20082;-77
2022/07/09 04:44:15;;;;;;;11.60;5.13;;;16.10;99.90;;;;;;5035398;28;20085;-78
2022/07/09 04:46:41;;;;;;;11.20;4.88;;;16.10;99.90;;;;;;5034608;28;20530;-77
2022/07/09 04:49:07;;;;;;;9.48;4.85;;;16.10;99.90;;;;;;5034614;28;20045;-77
2022/07/09 04:51:32;;;;;;;9.23;5.00;;;16.20;99.90;;;;;;5034349;28;20033;-77
2022/07/09 04:53:58;;;;;;;10.43;5.50;;;16.20;99.90;;;;;;5018565;28;20044;-78
2022/07/09 04:56:23;;;;;;;12.30;5.65;;;16.20;99.90;;;;;;5034640;28;20437;-77
2022/07/09 04:58:52;;;;;;;11.90;5.28;;;16.30;99.90;;;;;;5052507;28;20054;-77
2022/07/09 05:01:18;;;;;;;8.38;5.18;;;16.30;99.90;;;;;;5033662;28;20077;-77
2022/07/09 05:03:46;;;;;;;8.88;4.93;;;16.40;99.90;;;;;;5034506;28;20381;-78
2022/07/09 05:06:18;;;;;;;11.50;6.28;;;16.40;99.90;;;;;;5034567;28;20151;-77
2022/07/09 05:08:44;;;;;;;11.68;5.03;;;16.50;99.90;;;;;;5052305;28;20492;-77
2022/07/09 05:11:10;;;;;;;13.77;4.93;;;16.50;99.90;;;;;;5033478;28;20116;-77
2022/07/09 05:13:37;;;;;;;14.20;5.47;;;16.50;99.90;;;;;;5034329;28;20472;-77
2022/07/09 05:16:03;;;;;;;12.38;6.53;;;16.60;99.90;;;;;;5051894;28;20073;-77
2022/07/09 05:18:30;;;;;;;10.48;4.85;;;16.70;99.90;;;;;;5033951;28;20123;-78
2022/07/09 05:20:56;;;;;;;9.27;4.85;;;16.70;99.90;;;;;;5041166;28;20041;-77
2022/07/09 05:23:22;;;;;;;11.30;5.47;;;16.80;99.90;;;;;;5047148;28;20037;-77
2022/07/09 05:25:47;;;;;;;12.18;5.43;;;16.80;99.90;;;;;;5040880;28;20048;-77
2022/07/09 05:28:13;;;;;;;9.18;4.95;;;16.90;99.90;;;;;;5034546;28;20049;-77
2022/07/09 05:30:39;;;;;;;10.15;5.03;;;16.90;99.90;;;;;;5017496;28;20036;-78
2022/07/09 05:33:05;;;;;;;9.13;5.00;;;16.90;99.90;;;;;;5034605;28;20120;-78
2022/07/09 05:35:30;;;;;;;10.32;5.28;;;16.90;99.90;;;;;;5033835;28;20123;-77
2022/07/09 05:37:56;;;;;;;11.82;4.78;;;16.90;99.90;;;;;;5051285;28;20116;-78
2022/07/09 05:40:22;;;;;;;8.43;4.47;;;16.90;99.90;;;;;;5033707;28;20052;-77
2022/07/09 05:42:47;;;;;;;7.53;4.75;;;16.90;99.90;;;;;;5033969;28;20091;-78
2022/07/09 05:45:13;;;;;;;9.85;5.32;;;17.00;99.90;;;;;;5017073;28;20484;-77
2022/07/09 05:47:39;;;;;;;10.40;4.95;;;17.10;99.90;;;;;;5033309;28;20047;-78
2022/07/09 05:50:05;;;;;;;10.98;4.82;;;17.20;99.90;;;;;;5033224;28;20057;-77
2022/07/09 05:52:32;;;;;;;9.38;4.53;;;17.30;99.90;;;;;;5033587;28;20080;-77
2022/07/09 05:54:57;;;;;;;6.88;3.95;;;17.50;99.90;;;;;;5016880;28;20076;-77
2022/07/09 05:57:23;;;;;;;8.18;4.15;;;17.50;99.90;;;;;;5033265;28;20412;-78
2022/07/09 05:59:48;;;;;;;6.60;3.85;;;17.80;99.90;;;;;;5032917;28;20072;-78
2022/07/09 06:02:14;;;;;;;8.55;3.97;;;17.90;99.90;;;;;;5033146;28;20045;-77
2022/07/09 06:04:40;;;;;;;9.45;3.95;;;18.20;99.90;;;;;;5033058;28;20048;-78
2022/07/09 06:07:05;;;;;;;7.68;3.58;;;18.60;99.90;;;;;;5016673;28;20052;-78
2022/07/09 06:09:31;;;;;;;6.40;3.80;;;18.90;99.90;;;;;;5033031;28;20412;-76
2022/07/09 06:11:58;;;;;;;9.88;4.15;;;19.10;99.90;;;;;;5033971;28;20415;-82
2022/07/09 06:14:23;;;;;;;7.78;3.30;;;19.20;99.90;;;;;;5017996;28;20098;-81
2022/07/09 06:16:50;;;;;;;6.13;3.00;;;19.30;99.90;;;;;;5033484;28;20049;-82
2022/07/09 06:19:17;;;;;;;6.18;2.97;;;19.30;99.90;;;;;;5049254;28;20052;-82
2022/07/09 06:22:06;;;;;;;8.82;3.47;;;19.30;99.90;;;;;;5033464;28;20040;-81
2022/07/09 06:24:31;;;;;;;8.35;3.05;;;19.30;99.90;;;;;;5034347;28;20045;-82
2022/07/09 06:37:16;;;;;;;3.83;2.80;;;18.90;99.90;;;;;;5020645;28;20512;-82
2022/07/09 06:53:08;;;;;;;8.35;2.90;;;18.80;99.90;;;;;;4164493;22;20413;-82
2022/07/09 07:08:27;;;;;;;6.45;2.70;;;18.80;99.90;;;;;;5354257;22;20055;-83
2022/07/09 07:11:18;;;;;;;;;;;;;;;;;;;;;
2022/07/09 07:14:27;;;;;;;5.43;2.30;;;19.00;99.90;;;;;;5091959;28;20043;-84
2022/07/09 07:19:36;;;;;;;4.00;2.42;;;19.20;99.90;;;;;;5068802;28;20052;-84
2022/07/09 07:22:31;;;;;;;3.75;2.00;;;19.30;99.90;;;;;;5028877;28;20049;-84
2022/07/09 07:28:42;;;;;;;4.13;2.67;;;19.70;99.90;;;;;;5134429;22;20459;-84
2022/07/09 07:31:32;;;;;;;5.30;2.28;;;19.90;99.90;;;;;;5033286;28;20051;-83
2022/07/09 07:38:27;;;;;;;7.03;2.33;;;19.90;99.90;;;;;;5165471;22;20143;-83
2022/07/09 07:45:27;;;;;;;;;;;;;;;;;;;;;
2022/07/09 07:51:52;;;;;;;4.85;2.17;;;19.70;99.90;;;;;;5012112;28;20096;-85
2022/07/09 07:58:38;;;;;;;4.60;2.03;;;19.70;99.90;;;;;;5012198;28;20139;-84
2022/07/09 08:01:31;;;;;;;6.88;2.15;;;19.70;99.90;;;;;;4995360;28;20109;-84
2022/07/09 08:04:50;;;;;;;4.70;2.72;;;19.60;99.90;;;;;;4995838;28;20085;-84
2022/07/09 08:08:20;;;;;;;5.28;2.10;;;19.70;99.90;;;;;;4995716;28;20045;-83
2022/07/09 08:10:48;;;;;;;3.28;1.90;;;19.70;99.90;;;;;;4918369;29;20083;-84
2022/07/09 08:13:15;;;;;;;4.85;2.47;;;19.70;99.90;;;;;;4996747;28;20382;-86
2022/07/09 08:15:41;;;;;;;3.00;2.20;;;19.70;99.90;;;;;;5075952;28;20036;-84
2022/07/09 08:18:08;;;;;;;3.17;2.08;;;19.80;99.90;;;;;;5075609;28;20088;-85
2022/07/09 08:20:38;;;;;;;5.20;1.90;;;19.90;99.90;;;;;;5075764;28;20051;-84
2022/07/09 08:23:07;;;;;;;3.10;1.95;;;20.00;99.90;;;;;;5075891;28;20052;-86
2022/07/09 08:25:35;;;;;;;3.03;1.85;;;20.10;99.90;;;;;;5075873;28;20082;-84
2022/07/09 08:28:54;;;;;;;4.97;2.03;;;20.10;99.90;;;;;;5075843;28;20040;-84
2022/07/09 08:31:56;;;;;;;2.65;1.40;;;20.10;99.90;;;;;;4978986;28;20133;-85
2022/07/09 08:34:34;;;;;;;4.03;1.60;;;20.10;99.90;;;;;;5016019;28;20445;-86
2022/07/09 08:36:59;;;;;;;2.90;1.77;;;20.20;99.90;;;;;;5075607;28;20532;-82
2022/07/09 08:39:25;;;;;;;3.65;1.75;;;20.40;99.90;;;;;;5075616;28;20048;-82
2022/07/09 08:42:06;;;;;;;2.30;1.70;;;20.70;99.90;;;;;;5075764;28;20509;-83
2022/07/09 08:44:35;;;;;;;4.13;1.52;;;20.90;99.90;;;;;;5075169;28;20086;-83
2022/07/09 08:47:04;;;;;;;2.38;1.20;;;21.20;99.90;;;;;;5075396;28;20552;-83
2022/07/09 08:49:31;;;;;;;3.45;1.55;;;21.50;99.90;;;;;;5075064;28;20062;-84
2022/07/09 09:20:28;;;;;;;1.23;1.13;;;22.70;99.90;;;;;;4994307;28;20041;-85
2022/07/09 09:27:01;;;;;;;3.13;1.20;;;22.60;99.90;;;;;;4990980;28;20045;-85
2022/07/09 09:29:31;;;;;;;3.65;1.38;;;22.70;99.90;;;;;;4974137;28;20077;-85
2022/07/09 09:40:25;;;;;;;2.88;1.00;;;23.00;99.90;;;;;;4974760;28;20038;-85
2022/07/09 09:43:30;;;;;;;3.53;1.23;;;23.00;99.90;;;;;;4959902;28;20081;-85
2022/07/09 09:52:46;;;;;;;1.88;0.98;;;23.00;99.90;;;;;;5054146;28;20094;-84
2022/07/09 09:55:14;;;;;;;3.42;0.75;;;22.80;99.90;;;;;;5068945;28;20127;-82
2022/07/09 09:58:21;;;;;;;2.20;0.98;;;22.60;99.90;;;;;;5057994;28;20129;-84
2022/07/09 10:01:28;;;;;;;3.17;1.00;;;22.80;99.90;;;;;;5092913;28;20044;-85
2022/07/09 10:04:00;;;;;;;2.95;1.10;;;22.90;99.90;;;;;;5058659;28;20136;-86
2022/07/09 10:16:47;;;;;;;4.05;0.95;;;23.80;99.90;;;;;;1420327;26;20097;-80
2022/07/09 10:19:25;;;;;;;1.80;0.80;;;23.80;99.90;;;;;;5065180;28;20209;-79
2022/07/09 10:21:53;;;;;;;2.88;0.70;;;24.00;99.90;;;;;;5062056;28;20440;-78
2022/07/09 10:24:25;;;;;;;1.52;0.90;;;24.20;99.90;;;;;;5085240;28;20118;-80
2022/07/09 10:26:51;;;;;;;0.98;0.82;;;24.40;99.90;;;;;;5094068;28;20561;-80
2022/07/09 10:29:24;;;;;;;1.92;0.65;;;24.40;99.90;;;;;;5077352;28;20066;-78
2022/07/09 10:31:57;;;;;;;2.22;0.50;;;24.30;99.90;;;;;;5079788;28;20040;-80
2022/07/09 10:34:58;;;;;;;1.75;0.60;;;24.00;99.90;;;;;;5077487;28;20048;-80
2022/07/09 10:37:52;;;;;;;2.88;0.98;;;23.70;99.90;;;;;;5065409;28;20094;-80
2022/07/09 10:40:19;;;;;;;5.03;1.88;;;23.60;99.90;;;;;;5070969;28;20060;-81
2022/07/09 10:43:00;;;;;;;3.83;0.90;;;23.70;99.90;;;;;;5065160;28;20044;-82
2022/07/09 10:45:44;;;;;;;1.60;0.77;;;23.90;99.90;;;;;;5070755;28;20048;-80
2022/07/09 10:48:11;;;;;;;2.78;0.60;;;24.10;99.90;;;;;;5054719;28;21081;-80
2022/07/09 10:50:40;;;;;;;0.90;0.68;;;24.00;99.90;;;;;;5073871;28;20409;-80
2022/07/09 10:53:06;;;;;;;1.65;0.60;;;23.90;99.90;;;;;;5077644;28;20044;-80
2022/07/09 10:55:32;;;;;;;2.13;0.70;;;23.80;99.90;;;;;;5069802;28;20077;-79
2022/07/09 10:57:58;;;;;;;2.00;0.80;;;23.90;99.90;;;;;;5066976;28;20178;-80
2022/07/09 11:00:25;;;;;;;3.53;1.20;;;23.70;99.90;;;;;;5079367;28;20044;-81
2022/07/09 11:02:59;;;;;;;2.45;1.08;;;23.50;99.90;;;;;;5075137;28;20367;-81
2022/07/09 11:05:26;;;;;;;3.03;0.75;;;23.30;99.90;;;;;;5074235;28;20075;-81
2022/07/09 11:08:02;;;;;;;4.65;1.25;;;23.10;99.90;;;;;;5057764;28;20071;-80
2022/07/09 11:10:29;;;;;;;5.47;1.73;;;23.20;99.90;;;;;;5074422;28;20082;-82
2022/07/09 11:12:58;;;;;;;2.83;1.05;;;23.20;99.90;;;;;;5070587;28;20040;-81
2022/07/09 11:15:26;;;;;;;2.80;0.90;;;23.20;99.90;;;;;;5076342;28;20032;-82
2022/07/09 11:18:01;;;;;;;3.47;0.90;;;23.30;99.90;;;;;;5076318;28;20048;-79
2022/07/09 11:20:28;;;;;;;2.47;0.80;;;23.40;99.90;;;;;;5077284;28;20083;-80
2022/07/09 11:22:59;;;;;;;2.45;0.82;;;23.50;99.90;;;;;;5078907;28;20043;-80
2022/07/09 11:25:25;;;;;;;3.80;1.00;;;23.90;99.90;;;;;;5077748;28;20052;-78
2022/07/09 11:27:51;;;;;;;3.03;0.93;;;24.10;99.90;;;;;;5101941;28;20383;-81
2022/07/09 11:30:17;;;;;;;3.60;0.80;;;24.20;99.90;;;;;;5074333;28;20036;-80
2022/07/09 11:32:43;;;;;;;2.33;0.70;;;24.00;99.90;;;;;;5055427;28;20041;-80
2022/07/09 11:35:10;;;;;;;3.78;0.90;;;23.70;99.90;;;;;;5041933;28;20033;-80
2022/07/09 11:37:37;;;;;;;5.60;1.40;;;23.50;99.90;;;;;;5076402;28;20416;-80
2022/07/09 11:40:03;;;;;;;2.17;1.30;;;23.30;99.90;;;;;;5059937;28;20483;-80
2022/07/09 11:42:29;;;;;;;2.63;0.98;;;23.30;99.90;;;;;;5076567;28;20122;-80
2022/07/09 11:44:58;;;;;;;1.35;0.70;;;23.60;99.90;;;;;;5076684;28;20074;-80
2022/07/09 11:47:38;;;;;;;2.95;1.30;;;24.10;99.90;;;;;;5076572;28;20028;-80
2022/07/09 11:50:08;;;;;;;7.82;1.27;;;24.20;99.90;;;;;;5059937;28;20044;-80
2022/07/09 11:52:34;;;;;;;4.93;1.15;;;24.20;99.90;;;;;;5054485;28;20280;-80
2022/07/09 11:55:05;;;;;;;3.05;1.38;;;24.00;99.90;;;;;;5097064;28;20085;-81
2022/07/09 11:57:32;;;;;;;6.35;1.58;;;24.00;99.90;;;;;;5114898;28;20040;-80
2022/07/09 11:59:58;;;;;;;9.13;1.50;;;23.80;99.90;;;;;;5096324;28;20039;-81
2022/07/09 12:02:32;;;;;;;42.78;9.88;;;23.80;99.90;;;;;;5079793;28;20101;-80
2022/07/09 12:04:59;;;;;;;11.75;2.72;;;23.70;99.90;;;;;;5097053;28;20047;-80
2022/07/09 12:07:25;;;;;;;6.95;1.50;;;23.70;99.90;;;;;;5079419;28;20505;-81
2022/07/09 12:10:04;;;;;;;3.78;1.13;;;23.80;99.90;;;;;;5096725;28;20121;-81
2022/07/09 12:12:30;;;;;;;5.07;1.42;;;23.90;99.90;;;;;;5062637;28;20050;-80
2022/07/09 12:14:56;;;;;;;4.90;1.13;;;24.00;99.90;;;;;;5073756;28;20094;-80
2022/07/09 12:17:29;;;;;;;3.05;1.20;;;24.00;99.90;;;;;;5078633;28;20039;-79
2022/07/09 12:19:55;;;;;;;5.20;1.50;;;23.90;99.90;;;;;;5067647;28;20088;-79
2022/07/09 12:22:23;;;;;;;9.07;1.60;;;23.90;99.90;;;;;;5078864;28;20051;-80
2022/07/09 12:24:49;;;;;;;4.97;1.20;;;24.00;99.90;;;;;;5064560;28;20464;-78
2022/07/09 12:27:15;;;;;;;3.25;1.00;;;23.90;99.90;;;;;;5075378;28;20661;-78
2022/07/09 12:29:41;;;;;;;7.13;1.50;;;23.80;99.90;;;;;;5083112;28;20119;-79
2022/07/09 12:32:07;;;;;;;6.32;1.35;;;23.80;99.90;;;;;;5087406;28;20079;-78
2022/07/09 12:34:33;;;;;;;4.65;1.08;;;23.90;99.90;;;;;;5074466;28;20071;-79
2022/07/09 12:36:59;;;;;;;3.60;1.00;;;23.80;99.90;;;;;;5072823;28;20043;-79
2022/07/09 12:39:24;;;;;;;5.03;1.30;;;23.60;99.90;;;;;;5079620;28;20036;-79
2022/07/09 12:41:50;;;;;;;5.88;1.17;;;23.40;99.90;;;;;;5052336;28;20048;-74
2022/07/09 12:44:16;;;;;;;3.25;1.00;;;23.30;99.90;;;;;;5079529;28;20043;-78
2022/07/09 12:46:41;;;;;;;4.00;0.98;;;23.10;99.90;;;;;;5079708;28;20040;-78
2022/07/09 12:49:07;;;;;;;2.83;1.23;;;23.10;99.90;;;;;;5087595;28;20066;-77
2022/07/09 12:51:34;;;;;;;6.55;1.25;;;23.00;99.90;;;;;;5113425;28;20089;-77
2022/07/09 12:54:00;;;;;;;2.70;0.90;;;22.80;99.90;;;;;;5095618;28;20053;-78
2022/07/09 12:56:26;;;;;;;3.70;0.77;;;22.80;99.90;;;;;;5075259;28;20087;-80
2022/07/09 12:58:52;;;;;;;4.47;0.90;;;23.10;99.90;;;;;;5071263;28;20044;-79
2022/07/09 13:01:18;;;;;;;3.25;0.82;;;23.20;99.90;;;;;;5069022;28;20040;-79
2022/07/09 13:03:43;;;;;;;3.70;0.93;;;23.20;99.90;;;;;;5052972;28;20050;-79
2022/07/09 13:06:31;;;;;;;3.97;0.80;;;23.10;99.90;;;;;;5086550;28;20089;-81
2022/07/09 13:08:54;;;;;;;3.53;0.77;;;23.20;99.90;;;;;;5072299;28;20074;-79
2022/07/09 13:11:21;;;;;;;2.47;0.80;;;23.20;99.80;;;;;;5056500;28;20470;-80
2022/07/09 13:13:46;;;;;;;4.63;1.00;;;23.20;99.40;;;;;;5079411;28;20398;-82
2022/07/09 13:16:12;;;;;;;6.65;1.13;;;23.20;98.50;;;;;;5076736;28;20044;-81
2022/07/09 13:18:38;;;;;;;6.05;0.98;;;23.20;97.20;;;;;;5081349;28;20074;-79
2022/07/09 13:21:03;;;;;;;2.70;0.55;;;23.30;96.30;;;;;;5083031;28;20122;-78
2022/07/09 13:23:30;;;;;;;5.45;0.95;;;23.40;95.70;;;;;;5080556;28;20040;-80
2022/07/09 13:25:57;;;;;;;4.55;0.82;;;23.40;95.70;;;;;;5080300;28;20089;-79
2022/07/09 13:28:22;;;;;;;3.35;0.80;;;23.60;95.60;;;;;;5075719;28;20384;-81
2022/07/09 13:30:48;;;;;;;3.38;1.00;;;23.60;95.00;;;;;;5077492;28;20058;-82
2022/07/09 13:33:13;;;;;;;4.03;0.80;;;23.60;94.50;;;;;;5081351;28;20044;-80
2022/07/09 13:35:39;;;;;;;2.03;0.85;;;23.50;94.30;;;;;;5083611;28;20503;-80
2022/07/09 13:38:05;;;;;;;2.92;0.90;;;23.50;94.30;;;;;;5068764;28;20035;-84
2022/07/09 13:40:30;;;;;;;3.53;0.73;;;23.40;92.80;;;;;;5067859;28;20078;-82
2022/07/09 13:42:56;;;;;;;2.45;0.73;;;23.40;93.00;;;;;;5075427;28;20123;-82
2022/07/09 13:45:22;;;;;;;3.30;0.60;;;23.40;92.70;;;;;;5073805;28;20043;-82
2022/07/09 13:47:47;;;;;;;2.78;0.68;;;23.40;92.70;;;;;;5077419;28;20562;-82
2022/07/09 13:50:13;;;;;;;4.72;0.90;;;23.50;93.10;;;;;;5080296;28;20036;-84
2022/07/09 13:52:39;;;;;;;4.18;1.08;;;23.40;92.90;;;;;;5059029;28;20040;-82
2022/07/09 13:55:05;;;;;;;1.20;0.45;;;23.20;92.50;;;;;;5103410;28;20050;-83
2022/07/09 13:57:31;;;;;;;4.88;0.75;;;23.20;92.60;;;;;;5090842;28;20042;-84
2022/07/09 13:59:56;;;;;;;2.63;0.80;;;23.20;92.40;;;;;;5053921;28;20452;-80
2022/07/09 14:02:22;;;;;;;3.47;0.90;;;23.20;92.10;;;;;;5091138;28;20044;-80
2022/07/09 14:04:49;;;;;;;2.80;0.80;;;23.30;91.60;;;;;;5082075;28;20815;-84
2022/07/09 14:07:15;;;;;;;2.40;0.60;;;23.30;91.60;;;;;;5076243;28;20115;-81
2022/07/09 14:09:41;;;;;;;2.58;0.52;;;23.30;91.80;;;;;;5074068;28;20035;-81
2022/07/09 14:12:07;;;;;;;1.30;0.75;;;23.30;91.90;;;;;;5060260;28;20035;-81
2022/07/09 14:14:32;;;;;;;3.25;0.65;;;23.20;91.50;;;;;;5066043;28;20042;-81
2022/07/09 14:17:00;;;;;;;5.65;1.08;;;23.10;91.50;;;;;;5061093;28;20132;-82
2022/07/09 14:19:26;;;;;;;2.80;1.00;;;23.00;91.70;;;;;;5073300;28;20552;-80
2022/07/09 14:21:51;;;;;;;4.03;1.30;;;22.80;92.10;;;;;;5073462;28;20036;-80
2022/07/09 14:24:17;;;;;;;2.95;0.80;;;22.60;92.70;;;;;;5058184;28;20043;-80
2022/07/09 14:26:43;;;;;;;2.35;0.70;;;22.50;93.10;;;;;;5074514;28;20040;-81
2022/07/09 14:29:16;;;;;;;5.95;1.00;;;22.60;93.50;;;;;;5055154;28;20043;-80
2022/07/09 14:31:41;;;;;;;2.88;0.98;;;22.50;91.50;;;;;;5051121;28;20028;-81
2022/07/09 14:34:07;;;;;;;3.70;0.77;;;22.30;92.70;;;;;;5049765;28;20032;-80
2022/07/09 14:36:33;;;;;;;25.83;3.00;;;22.00;92.90;;;;;;5066954;28;20481;-79
2022/07/09 14:38:58;;;;;;;3.65;0.70;;;21.90;93.70;;;;;;5079775;28;20040;-79
2022/07/09 14:41:24;;;;;;;5.45;0.80;;;21.90;94.30;;;;;;5065603;28;20047;-79
2022/07/09 14:43:50;;;;;;;3.90;0.95;;;21.90;94.80;;;;;;5052623;28;20110;-81
2022/07/09 14:46:15;;;;;;;2.58;0.85;;;21.90;95.10;;;;;;5053211;28;20040;-78
2022/07/09 14:48:41;;;;;;;4.05;1.17;;;21.60;95.00;;;;;;5073208;28;20043;-79
2022/07/09 14:51:07;;;;;;;3.72;0.88;;;21.60;95.30;;;;;;5070114;28;20040;-80